Time;durP1;ratioP1;P1;durP2;ratioP2;P2;SDS_P1;SDS_P2;PMS_P1;PMS_P2;Temp;Humidity;BMP_temperature;BMP_pressure;BME280_temperature;BME280_humidity;BME280_pressure;Samples;Min_cycle;Max_cycle;Signal;HPM_P1;HPM_P2
2023/06/06 00:01:01;;;;;;;8.77;4.17;;;;;;;;;;5009728;28;20225;-71
2023/06/06 00:03:26;;;;;;;9.70;5.03;;;;;;;;;;5009967;28;20232;-70
2023/06/06 00:08:28;;;;;;;13.83;5.73;;;;;;;;;;5025736;28;20224;-75
2023/06/06 00:10:54;;;;;;;10.47;5.03;;;;;;;;;;5033162;28;20202;-75
2023/06/06 00:13:20;;;;;;;8.63;5.17;;;;;;;;;;5033501;28;20201;-75
2023/06/06 00:15:45;;;;;;;8.00;4.70;;;;;;;;;;5028938;28;21935;-76
2023/06/06 00:18:11;;;;;;;8.20;4.97;;;;;;;;;;5032133;28;20217;-75
2023/06/06 00:20:38;;;;;;;8.23;4.40;;;;;;;;;;5031303;28;20205;-75
2023/06/06 00:23:04;;;;;;;9.00;5.63;;;;;;;;;;5031029;28;20194;-74
2023/06/06 00:25:29;;;;;;;8.20;4.97;;;;;;;;;;5014517;28;20204;-74
2023/06/06 00:27:54;;;;;;;10.90;4.90;;;;;;;;;;5032411;28;20755;-75
2023/06/06 00:30:20;;;;;;;8.63;5.03;;;;;;;;;;5032632;28;20198;-75
2023/06/06 00:32:46;;;;;;;9.40;4.80;;;;;;;;;;5012842;28;20179;-75
2023/06/06 00:35:11;;;;;;;12.17;5.20;;;;;;;;;;5024277;28;20236;-76
2023/06/06 00:37:37;;;;;;;9.67;5.50;;;;;;;;;;5029648;28;20195;-76
2023/06/06 00:40:03;;;;;;;12.43;5.80;;;;;;;;;;5032171;28;20177;-75
2023/06/06 00:42:29;;;;;;;10.30;6.40;;;;;;;;;;5035579;28;20186;-75
2023/06/06 00:44:54;;;;;;;16.03;6.03;;;;;;;;;;5033412;28;20174;-75
2023/06/06 00:47:19;;;;;;;7.17;5.40;;;;;;;;;;5039278;28;20563;-75
2023/06/06 00:49:45;;;;;;;14.80;6.40;;;;;;;;;;5029213;28;20224;-76
2023/06/06 00:52:11;;;;;;;13.80;5.20;;;;;;;;;;5013604;28;20212;-75
2023/06/06 00:54:36;;;;;;;12.13;5.67;;;;;;;;;;5028556;28;20174;-75
2023/06/06 00:57:02;;;;;;;11.63;6.57;;;;;;;;;;5032137;28;20197;-76
2023/06/06 00:59:27;;;;;;;9.07;5.60;;;;;;;;;;5031812;28;20182;-75
2023/06/06 01:01:53;;;;;;;12.23;5.53;;;;;;;;;;5033326;28;20178;-74
2023/06/06 01:04:18;;;;;;;10.57;5.40;;;;;;;;;;5009894;28;20182;-75
2023/06/06 01:06:43;;;;;;;8.80;5.40;;;;;;;;;;5032247;28;20242;-75
2023/06/06 01:09:09;;;;;;;8.63;5.10;;;;;;;;;;5032323;28;20639;-77
2023/06/06 01:11:35;;;;;;;10.80;5.60;;;;;;;;;;5029254;28;20190;-75
2023/06/06 01:14:01;;;;;;;9.30;5.83;;;;;;;;;;5012821;28;20193;-76
2023/06/06 01:16:26;;;;;;;10.70;4.80;;;;;;;;;;5031601;28;20261;-75
2023/06/06 01:18:53;;;;;;;10.87;5.77;;;;;;;;;;5032578;28;20186;-75
2023/06/06 01:21:19;;;;;;;7.87;4.80;;;;;;;;;;5014126;28;20671;-75
2023/06/06 01:23:45;;;;;;;9.07;6.07;;;;;;;;;;5030748;28;20179;-75
2023/06/06 01:26:12;;;;;;;11.27;5.80;;;;;;;;;;5013728;28;20197;-76
2023/06/06 01:28:37;;;;;;;9.80;5.50;;;;;;;;;;5031466;28;20189;-76
2023/06/06 01:31:03;;;;;;;8.97;4.80;;;;;;;;;;5030928;28;20190;-75
2023/06/06 01:33:29;;;;;;;10.03;5.37;;;;;;;;;;5032083;28;20714;-75
2023/06/06 01:36:06;;;;;;;10.97;4.70;;;;;;;;;;5008349;28;20277;-75
2023/06/06 01:38:45;;;;;;;9.07;4.70;;;;;;;;;;5032340;28;20236;-75
2023/06/06 01:41:12;;;;;;;7.47;4.53;;;;;;;;;;5032630;28;20198;-76
2023/06/06 01:43:39;;;;;;;10.73;5.67;;;;;;;;;;5032409;28;20186;-75
2023/06/06 01:46:05;;;;;;;9.43;6.10;;;;;;;;;;5029830;28;20186;-76
2023/06/06 01:48:31;;;;;;;12.60;6.57;;;;;;;;;;5013294;28;20185;-75
2023/06/06 01:50:56;;;;;;;6.60;4.33;;;;;;;;;;5029620;28;20186;-74
2023/06/06 01:53:21;;;;;;;8.20;4.83;;;;;;;;;;5030817;28;20277;-74
2023/06/06 01:55:48;;;;;;;11.27;6.07;;;;;;;;;;5027054;28;20175;-74
2023/06/06 01:58:14;;;;;;;9.00;5.87;;;;;;;;;;5031241;28;20256;-73
2023/06/06 02:00:40;;;;;;;13.77;5.80;;;;;;;;;;5029336;28;20212;-74
2023/06/06 02:03:05;;;;;;;10.97;5.03;;;;;;;;;;5025443;28;20560;-73
2023/06/06 02:05:31;;;;;;;10.30;5.37;;;;;;;;;;5032060;28;20577;-74
2023/06/06 02:07:56;;;;;;;7.97;4.90;;;;;;;;;;5035191;28;20704;-73
2023/06/06 02:10:21;;;;;;;12.80;4.90;;;;;;;;;;5035131;28;20182;-73
2023/06/06 02:12:46;;;;;;;11.00;5.17;;;;;;;;;;5028810;28;20182;-73
2023/06/06 02:15:13;;;;;;;12.83;6.07;;;;;;;;;;5032794;28;20186;-73
2023/06/06 02:17:38;;;;;;;12.93;6.13;;;;;;;;;;5031648;28;20245;-74
2023/06/06 02:20:04;;;;;;;13.60;5.53;;;;;;;;;;5033929;28;20214;-74
2023/06/06 02:22:29;;;;;;;12.83;5.20;;;;;;;;;;5034716;28;20170;-74
2023/06/06 02:24:54;;;;;;;8.83;4.87;;;;;;;;;;5018352;28;20181;-74
2023/06/06 02:27:21;;;;;;;11.97;6.40;;;;;;;;;;5034789;28;20668;-74
2023/06/06 02:29:46;;;;;;;9.97;5.40;;;;;;;;;;5034457;28;20224;-74
2023/06/06 02:32:11;;;;;;;8.37;4.33;;;;;;;;;;5041525;28;20257;-74
2023/06/06 02:34:37;;;;;;;7.53;5.03;;;;;;;;;;5035800;28;20536;-74
2023/06/06 02:37:06;;;;;;;8.83;5.23;;;;;;;;;;5017393;28;20197;-74
2023/06/06 02:39:32;;;;;;;12.87;5.73;;;;;;;;;;5025483;28;20185;-74
2023/06/06 02:41:57;;;;;;;13.20;4.80;;;;;;;;;;5035909;28;20202;-74
2023/06/06 02:44:22;;;;;;;8.73;5.00;;;;;;;;;;5016570;28;20269;-74
2023/06/06 02:46:47;;;;;;;9.50;4.93;;;;;;;;;;5034478;28;20198;-74
2023/06/06 02:49:12;;;;;;;8.70;5.07;;;;;;;;;;5017459;28;20648;-74
2023/06/06 02:51:38;;;;;;;10.60;4.90;;;;;;;;;;5042555;28;20173;-75
2023/06/06 02:54:03;;;;;;;8.77;5.00;;;;;;;;;;5034753;28;20261;-76
2023/06/06 02:56:28;;;;;;;9.93;4.70;;;;;;;;;;5015281;28;20202;-76
2023/06/06 02:58:54;;;;;;;13.57;5.60;;;;;;;;;;5035965;28;20164;-75
2023/06/06 03:01:21;;;;;;;11.17;5.17;;;;;;;;;;5035082;28;20198;-75
2023/06/06 03:03:46;;;;;;;8.33;4.93;;;;;;;;;;5031983;28;20584;-75
2023/06/06 03:06:12;;;;;;;8.97;6.07;;;;;;;;;;5016225;28;20197;-76
2023/06/06 03:08:42;;;;;;;8.03;4.97;;;;;;;;;;5031686;28;20182;-75
2023/06/06 03:11:07;;;;;;;10.80;4.83;;;;;;;;;;5034623;28;20200;-76
2023/06/06 03:13:32;;;;;;;9.63;4.60;;;;;;;;;;5031129;28;20182;-75
2023/06/06 03:15:57;;;;;;;8.93;5.10;;;;;;;;;;5032894;28;20656;-76
2023/06/06 03:18:23;;;;;;;7.50;4.80;;;;;;;;;;5029699;28;22624;-76
2023/06/06 03:20:51;;;;;;;9.07;4.97;;;;;;;;;;5019171;28;20240;-75
2023/06/06 03:23:16;;;;;;;8.30;4.80;;;;;;;;;;5033305;28;20666;-74
2023/06/06 03:25:43;;;;;;;10.30;4.70;;;;;;;;;;5032628;28;20178;-74
2023/06/06 03:28:12;;;;;;;10.13;5.20;;;;;;;;;;5035113;28;20650;-74
2023/06/06 03:30:37;;;;;;;6.67;4.17;;;;;;;;;;5030645;28;20550;-74
2023/06/06 03:33:05;;;;;;;9.23;4.93;;;;;;;;;;5032448;28;20441;-74
2023/06/06 03:35:34;;;;;;;8.97;4.63;;;;;;;;;;5016194;28;20182;-74
2023/06/06 03:38:00;;;;;;;9.20;5.30;;;;;;;;;;5016414;28;20675;-74
2023/06/06 03:40:25;;;;;;;9.17;4.27;;;;;;;;;;5032587;28;20235;-75
2023/06/06 03:42:50;;;;;;;8.30;4.20;;;;;;;;;;5036938;28;20186;-75
2023/06/06 03:45:19;;;;;;;11.37;4.63;;;;;;;;;;5031782;28;20683;-74
2023/06/06 03:47:45;;;;;;;8.20;4.33;;;;;;;;;;5032874;28;20205;-74
2023/06/06 03:50:10;;;;;;;7.87;4.03;;;;;;;;;;5031852;28;20178;-74
2023/06/06 03:52:36;;;;;;;10.43;4.40;;;;;;;;;;5021854;28;20532;-74
2023/06/06 03:55:01;;;;;;;9.43;4.33;;;;;;;;;;5015527;28;20182;-74
2023/06/06 03:57:26;;;;;;;6.03;4.03;;;;;;;;;;5032081;28;20190;-74
2023/06/06 03:59:51;;;;;;;8.00;4.60;;;;;;;;;;5030232;28;21015;-74
2023/06/06 04:02:17;;;;;;;6.43;4.10;;;;;;;;;;5020984;28;20198;-74
2023/06/06 04:04:43;;;;;;;7.77;4.20;;;;;;;;;;5032459;28;20273;-74
2023/06/06 04:07:08;;;;;;;10.87;4.93;;;;;;;;;;5031343;28;20596;-75
2023/06/06 04:09:33;;;;;;;7.40;5.00;;;;;;;;;;5031367;28;20178;-74
2023/06/06 04:11:58;;;;;;;7.30;4.17;;;;;;;;;;5014050;28;20186;-75
2023/06/06 04:14:23;;;;;;;7.33;4.10;;;;;;;;;;5028474;28;20174;-74
2023/06/06 04:16:49;;;;;;;11.43;4.47;;;;;;;;;;5013567;28;20200;-75
2023/06/06 04:19:14;;;;;;;6.00;3.93;;;;;;;;;;5030462;28;20184;-74
2023/06/06 04:21:40;;;;;;;7.23;4.43;;;;;;;;;;5029123;28;20194;-75
2023/06/06 04:24:05;;;;;;;7.70;3.95;;;;;;;;;;5015291;28;20178;-75
2023/06/06 04:26:31;;;;;;;6.28;4.03;;;;;;;;;;5033681;28;20210;-74
2023/06/06 04:28:58;;;;;;;6.85;4.05;;;;;;;;;;5033441;28;20178;-74
2023/06/06 04:31:25;;;;;;;7.18;3.78;;;;;;;;;;5011614;28;20173;-75
2023/06/06 04:33:53;;;;;;;8.38;3.15;;;;;;;;;;5014665;28;20325;-75
2023/06/06 04:36:22;;;;;;;8.43;3.88;;;;;;;;;;5032827;28;20191;-75
2023/06/06 04:38:49;;;;;;;6.82;3.33;;;;;;;;;;5015139;28;20177;-75
2023/06/06 04:41:15;;;;;;;7.18;3.92;;;;;;;;;;5032009;28;20232;-75
2023/06/06 04:43:40;;;;;;;5.13;3.35;;;;;;;;;;5042800;28;20198;-75
2023/06/06 04:46:06;;;;;;;8.20;4.20;;;;;;;;;;5041748;28;20703;-75
2023/06/06 04:48:31;;;;;;;4.65;3.72;;;;;;;;;;5031558;28;20261;-74
2023/06/06 04:50:57;;;;;;;6.20;3.05;;;;;;;;;;5011320;28;20537;-75
2023/06/06 04:53:23;;;;;;;7.80;3.30;;;;;;;;;;5033803;28;20284;-74
2023/06/06 04:55:49;;;;;;;6.53;3.13;;;;;;;;;;5033587;28;20158;-74
2023/06/06 04:58:16;;;;;;;7.00;3.75;;;;;;;;;;5032227;28;20288;-75
2023/06/06 05:00:45;;;;;;;12.45;4.75;;;;;;;;;;5032164;28;20197;-75
2023/06/06 05:03:11;;;;;;;11.10;4.05;;;;;;;;;;5013551;28;20185;-75
2023/06/06 05:05:36;;;;;;;9.00;3.90;;;;;;;;;;5012730;28;20182;-75
2023/06/06 05:08:01;;;;;;;5.43;3.55;;;;;;;;;;5032315;28;20216;-75
2023/06/06 05:10:26;;;;;;;8.57;4.30;;;;;;;;;;5030782;28;20527;-74
2023/06/06 05:12:52;;;;;;;10.52;4.53;;;;;;;;;;5032111;28;20577;-75
2023/06/06 05:15:17;;;;;;;8.60;5.25;;;;;;;;;;5027883;28;20187;-75
2023/06/06 05:17:55;;;;;;;5.93;3.42;;;;;;;;;;5030233;28;20288;-76
2023/06/06 05:20:23;;;;;;;9.07;4.53;;;;;;;;;;5026453;28;20178;-76
2023/06/06 05:22:49;;;;;;;9.77;4.03;;;;;;;;;;5028889;28;20240;-75
2023/06/06 05:25:14;;;;;;;11.40;4.65;;;;;;;;;;5030743;28;20158;-75
2023/06/06 05:27:39;;;;;;;10.75;4.60;;;;;;;;;;5027354;28;20197;-75
2023/06/06 05:30:05;;;;;;;7.05;4.40;;;;;;;;;;5013647;28;20185;-75
2023/06/06 05:32:30;;;;;;;10.20;5.28;;;;;;;;;;5030646;28;20183;-76
2023/06/06 05:34:55;;;;;;;8.63;3.95;;;;;;;;;;5033198;28;20743;-74
2023/06/06 05:37:20;;;;;;;7.18;4.32;;;;;;;;;;5030737;28;20202;-75
2023/06/06 05:39:46;;;;;;;7.60;4.65;;;;;;;;;;5013176;28;20179;-75
2023/06/06 05:42:11;;;;;;;8.77;5.07;;;;;;;;;;5019649;28;20592;-75
2023/06/06 05:44:36;;;;;;;8.60;4.43;;;;;;;;;;5023459;28;20213;-75
2023/06/06 05:47:01;;;;;;;7.80;4.28;;;;;;;;;;5032745;28;20178;-75
2023/06/06 05:49:27;;;;;;;8.82;4.20;;;;;;;;;;5037350;28;20177;-75
2023/06/06 05:51:52;;;;;;;10.57;4.60;;;;;;;;;;5035194;28;20293;-75
2023/06/06 05:54:17;;;;;;;10.32;4.65;;;;;;;;;;5033078;28;20182;-74
2023/06/06 05:56:43;;;;;;;9.80;5.03;;;;;;;;;;5029870;28;20198;-75
2023/06/06 05:59:08;;;;;;;7.00;3.90;;;;;;;;;;5028066;28;20179;-74
2023/06/06 06:01:33;;;;;;;9.50;4.25;;;;;;;;;;5025472;28;20198;-74
2023/06/06 06:03:58;;;;;;;7.78;4.47;;;;;;;;;;5034136;28;20195;-75
2023/06/06 06:06:27;;;;;;;6.80;3.58;;;;;;;;;;5017614;28;20711;-76
2023/06/06 06:08:52;;;;;;;8.23;3.90;;;;;;;;;;5063391;22;20258;-70
2023/06/06 06:11:18;;;;;;;13.43;4.68;;;;;;;;;;5046732;28;20659;-70
2023/06/06 06:13:43;;;;;;;7.10;4.28;;;;;;;;;;5045511;28;20198;-70
2023/06/06 06:16:09;;;;;;;8.70;4.13;;;;;;;;;;5053850;28;20228;-70
2023/06/06 06:18:34;;;;;;;12.38;4.15;;;;;;;;;;5046780;28;20656;-70
2023/06/06 06:20:59;;;;;;;9.35;4.10;;;;;;;;;;5049632;28;20224;-70
2023/06/06 06:23:25;;;;;;;8.38;3.40;;;;;;;;;;5050518;28;20201;-70
2023/06/06 06:25:50;;;;;;;6.18;3.58;;;;;;;;;;5047291;28;20286;-71
2023/06/06 06:28:22;;;;;;;7.90;4.68;;;;;;;;;;5044480;28;20252;-70
2023/06/06 06:30:47;;;;;;;8.27;4.95;;;;;;;;;;5042494;28;20179;-70
2023/06/06 06:33:12;;;;;;;7.70;4.20;;;;;;;;;;5048160;28;20697;-70
2023/06/06 06:35:38;;;;;;;8.25;3.78;;;;;;;;;;5049405;28;20712;-71
2023/06/06 06:38:03;;;;;;;9.55;4.07;;;;;;;;;;5053601;28;20250;-70
2023/06/06 06:40:28;;;;;;;6.68;4.07;;;;;;;;;;5041181;28;20723;-70
2023/06/06 06:42:53;;;;;;;5.82;3.63;;;;;;;;;;5054609;28;20200;-70
2023/06/06 06:45:21;;;;;;;6.78;3.38;;;;;;;;;;5045835;28;20183;-70
2023/06/06 06:47:46;;;;;;;5.97;3.75;;;;;;;;;;5046292;28;20593;-70
2023/06/06 06:50:11;;;;;;;6.00;3.50;;;;;;;;;;5028606;28;20611;-70
2023/06/06 06:52:37;;;;;;;8.95;3.60;;;;;;;;;;5030823;28;20597;-70
2023/06/06 06:55:04;;;;;;;5.85;3.53;;;;;;;;;;5026852;28;20762;-70
2023/06/06 06:57:30;;;;;;;8.18;3.58;;;;;;;;;;5048319;28;20197;-71
2023/06/06 06:59:56;;;;;;;5.22;2.90;;;;;;;;;;5042385;28;20186;-70
2023/06/06 07:02:26;;;;;;;7.50;3.58;;;;;;;;;;5025712;28;20208;-70
2023/06/06 07:04:52;;;;;;;5.95;3.58;;;;;;;;;;5039883;28;20175;-70
2023/06/06 07:07:17;;;;;;;7.47;3.90;;;;;;;;;;5043366;28;20208;-70
2023/06/06 07:09:45;;;;;;;9.80;4.10;;;;;;;;;;5046580;28;20185;-70
2023/06/06 07:12:11;;;;;;;9.73;3.95;;;;;;;;;;5045490;28;20190;-70
2023/06/06 07:14:36;;;;;;;10.93;4.47;;;;;;;;;;5043107;28;20181;-70
2023/06/06 07:17:03;;;;;;;5.22;3.55;;;;;;;;;;5045640;28;20659;-70
2023/06/06 07:19:28;;;;;;;7.32;3.47;;;;;;;;;;5030311;28;20197;-70
2023/06/06 07:21:54;;;;;;;7.45;4.07;;;;;;;;;;5045841;28;20748;-70
2023/06/06 07:24:20;;;;;;;6.85;2.95;;;;;;;;;;5037650;28;20260;-70
2023/06/06 07:26:45;;;;;;;7.13;3.15;;;;;;;;;;5044257;28;20257;-70
2023/06/06 07:29:11;;;;;;;4.70;3.08;;;;;;;;;;5045724;28;20178;-71
2023/06/06 07:31:37;;;;;;;5.95;2.88;;;;;;;;;;5048701;28;20181;-70
2023/06/06 07:34:02;;;;;;;5.25;3.70;;;;;;;;;;5043940;28;20170;-70
2023/06/06 07:36:29;;;;;;;9.63;4.10;;;;;;;;;;5048119;28;20572;-71
2023/06/06 07:38:54;;;;;;;4.00;2.78;;;;;;;;;;5033520;28;20198;-71
2023/06/06 07:41:20;;;;;;;7.55;3.60;;;;;;;;;;5051062;28;20212;-70
2023/06/06 07:43:45;;;;;;;5.38;2.97;;;;;;;;;;5044468;28;20636;-71
2023/06/06 07:46:10;;;;;;;8.90;3.75;;;;;;;;;;5051933;28;20180;-70
2023/06/06 07:48:36;;;;;;;6.20;3.50;;;;;;;;;;5052269;28;20197;-70
2023/06/06 07:51:02;;;;;;;8.05;3.60;;;;;;;;;;5051816;28;20888;-70
2023/06/06 07:53:27;;;;;;;8.13;3.42;;;;;;;;;;5026537;28;20170;-71
2023/06/06 07:55:53;;;;;;;5.50;3.17;;;;;;;;;;5022640;28;20175;-71
2023/06/06 07:58:25;;;;;;;5.45;3.03;;;;;;;;;;5032569;28;20431;-70
2023/06/06 08:00:50;;;;;;;6.63;2.50;;;;;;;;;;5047479;28;20296;-71
2023/06/06 08:03:16;;;;;;;5.37;3.57;;;;;;;;;;5043881;28;20285;-71
2023/06/06 08:05:41;;;;;;;6.43;3.10;;;;;;;;;;5026540;28;20905;-71
2023/06/06 08:08:06;;;;;;;6.20;2.87;;;;;;;;;;5039301;28;20209;-70
2023/06/06 08:10:32;;;;;;;6.30;2.95;;;;;;;;;;5041102;28;20411;-71
2023/06/06 08:12:57;;;;;;;4.28;2.40;;;;;;;;;;5047134;28;20186;-71
2023/06/06 08:15:22;;;;;;;6.05;3.00;;;;;;;;;;5047433;28;20181;-71
2023/06/06 08:17:48;;;;;;;7.70;2.87;;;;;;;;;;5048299;28;20263;-71
2023/06/06 08:20:13;;;;;;;7.32;3.08;;;;;;;;;;5042170;28;20437;-71
2023/06/06 08:22:46;;;;;;;7.55;2.97;;;;;;;;;;5043627;28;20268;-71
2023/06/06 08:25:12;;;;;;;6.78;2.92;;;;;;;;;;5049430;28;20564;-71
2023/06/06 08:27:38;;;;;;;5.23;2.93;;;;;;;;;;5050430;28;20201;-71
2023/06/06 08:30:04;;;;;;;5.75;2.58;;;;;;;;;;5042853;28;20403;-71
2023/06/06 08:32:32;;;;;;;4.78;3.00;;;;;;;;;;5036621;28;20700;-71
2023/06/06 08:34:57;;;;;;;8.82;2.60;;;;;;;;;;5029562;28;20178;-71
2023/06/06 08:37:22;;;;;;;3.83;2.60;;;;;;;;;;5024719;28;20247;-71
2023/06/06 08:39:49;;;;;;;4.50;2.50;;;;;;;;;;5044978;28;20185;-71
2023/06/06 08:42:17;;;;;;;7.30;2.50;;;;;;;;;;5037979;28;20201;-71
2023/06/06 08:44:42;;;;;;;6.60;2.70;;;;;;;;;;5048254;28;20244;-71
2023/06/06 08:47:08;;;;;;;4.10;2.60;;;;;;;;;;5028382;28;20671;-71
2023/06/06 08:49:35;;;;;;;7.95;2.53;;;;;;;;;;5045894;28;20513;-71
2023/06/06 08:52:02;;;;;;;5.45;3.08;;;;;;;;;;5025822;28;20648;-71
2023/06/06 08:54:27;;;;;;;8.77;3.13;;;;;;;;;;5043749;28;20185;-71
2023/06/06 08:56:54;;;;;;;7.70;2.58;;;;;;;;;;5024386;28;20672;-71
2023/06/06 08:59:19;;;;;;;4.68;2.53;;;;;;;;;;5048259;28;20647;-71
2023/06/06 09:01:47;;;;;;;2.42;2.13;;;;;;;;;;5045599;28;20197;-71
2023/06/06 09:04:15;;;;;;;3.53;2.60;;;;;;;;;;5050121;28;20178;-71
2023/06/06 09:06:44;;;;;;;5.38;2.20;;;;;;;;;;5039728;28;20639;-71
2023/06/06 09:09:10;;;;;;;7.10;2.58;;;;;;;;;;5050162;28;20181;-71
2023/06/06 09:11:35;;;;;;;7.65;2.60;;;;;;;;;;5050964;28;20314;-71
2023/06/06 09:14:01;;;;;;;5.65;2.95;;;;;;;;;;5046335;28;20177;-71
2023/06/06 09:16:26;;;;;;;4.65;2.88;;;;;;;;;;5050596;28;20178;-71
2023/06/06 09:18:51;;;;;;;6.05;2.58;;;;;;;;;;5051124;28;20190;-71
2023/06/06 09:21:17;;;;;;;3.38;2.53;;;;;;;;;;5033047;28;20202;-71
2023/06/06 09:23:42;;;;;;;7.55;3.03;;;;;;;;;;5047521;28;20583;-71
2023/06/06 09:26:17;;;;;;;5.13;3.47;;;;;;;;;;5043763;28;20170;-71
2023/06/06 09:28:42;;;;;;;6.70;2.65;;;;;;;;;;5050500;28;20193;-71
2023/06/06 09:31:29;;;;;;;3.80;2.70;;;;;;;;;;5043427;28;20239;-71
2023/06/06 09:33:55;;;;;;;4.63;2.65;;;;;;;;;;5021383;28;20178;-71
2023/06/06 09:36:21;;;;;;;4.10;2.83;;;;;;;;;;5046980;28;20185;-71
2023/06/06 09:38:47;;;;;;;5.28;2.80;;;;;;;;;;5018030;28;20193;-71
2023/06/06 09:41:12;;;;;;;7.03;3.03;;;;;;;;;;5043913;28;20204;-71
2023/06/06 09:43:38;;;;;;;7.10;2.75;;;;;;;;;;5051641;28;20257;-71
2023/06/06 09:46:05;;;;;;;8.57;2.87;;;;;;;;;;5039771;28;20261;-71
2023/06/06 09:48:30;;;;;;;5.70;2.88;;;;;;;;;;5023593;28;20451;-71
2023/06/06 09:50:56;;;;;;;5.47;3.17;;;;;;;;;;5045284;28;20180;-71
2023/06/06 09:53:24;;;;;;;5.13;2.58;;;;;;;;;;5048298;28;20908;-71
2023/06/06 09:55:50;;;;;;;5.90;3.05;;;;;;;;;;5023367;28;20192;-71
2023/06/06 09:58:16;;;;;;;3.70;2.75;;;;;;;;;;5036519;28;20300;-71
2023/06/06 10:00:45;;;;;;;5.50;2.83;;;;;;;;;;5030028;28;20233;-71
2023/06/06 10:03:16;;;;;;;5.22;3.38;;;;;;;;;;5046376;28;20174;-71
2023/06/06 10:05:41;;;;;;;5.32;2.90;;;;;;;;;;5026447;28;20178;-71
2023/06/06 10:08:09;;;;;;;8.90;2.88;;;;;;;;;;5023433;28;20594;-71
2023/06/06 10:10:35;;;;;;;6.10;3.20;;;;;;;;;;5025753;28;20193;-71
2023/06/06 10:13:00;;;;;;;6.45;3.30;;;;;;;;;;5044071;28;20216;-71
2023/06/06 10:15:26;;;;;;;13.38;4.43;;;;;;;;;;5035394;28;20267;-71
2023/06/06 10:17:51;;;;;;;6.63;2.72;;;;;;;;;;5040951;28;20231;-71
2023/06/06 10:20:17;;;;;;;4.30;3.03;;;;;;;;;;5045522;28;20259;-71
2023/06/06 10:22:42;;;;;;;5.82;3.13;;;;;;;;;;5029363;28;20181;-71
2023/06/06 10:25:12;;;;;;;6.85;3.60;;;;;;;;;;5046310;28;20182;-71
2023/06/06 10:27:40;;;;;;;7.35;3.05;;;;;;;;;;5044134;28;20194;-71
2023/06/06 10:30:13;;;;;;;5.28;3.58;;;;;;;;;;5042254;28;20225;-71
2023/06/06 10:32:50;;;;;;;4.25;2.90;;;;;;;;;;5047488;28;20630;-71
2023/06/06 10:35:16;;;;;;;6.05;3.28;;;;;;;;;;5046695;28;20185;-71
2023/06/06 10:37:41;;;;;;;7.97;3.50;;;;;;;;;;5045500;28;20189;-71
2023/06/06 10:40:10;;;;;;;5.68;3.55;;;;;;;;;;5045570;28;20299;-71
2023/06/06 10:42:39;;;;;;;5.68;3.60;;;;;;;;;;5042305;28;20193;-71
2023/06/06 10:45:06;;;;;;;12.88;4.45;;;;;;;;;;5037755;28;20175;-72
2023/06/06 10:47:32;;;;;;;7.68;3.30;;;;;;;;;;5020099;28;20304;-71
2023/06/06 10:50:13;;;;;;;9.82;3.88;;;;;;;;;;5045562;28;20172;-71
2023/06/06 10:52:45;;;;;;;7.80;3.40;;;;;;;;;;5047844;28;20266;-70
2023/06/06 10:55:17;;;;;;;7.90;3.72;;;;;;;;;;5024099;28;20621;-70
2023/06/06 10:58:13;;;;;;;4.18;3.17;;;;;;;;;;5021681;28;20194;-70
2023/06/06 11:00:43;;;;;;;4.18;3.15;;;;;;;;;;5030667;28;20201;-70
2023/06/06 11:03:09;;;;;;;6.38;2.90;;;;;;;;;;5047367;28;20178;-71
2023/06/06 11:05:53;;;;;;;4.90;3.35;;;;;;;;;;5034870;28;20856;-71
2023/06/06 11:08:18;;;;;;;9.40;3.88;;;;;;;;;;5041923;28;20243;-70
2023/06/06 11:10:45;;;;;;;6.82;3.05;;;;;;;;;;5017230;28;20209;-71
2023/06/06 11:13:28;;;;;;;4.03;3.00;;;;;;;;;;5040523;28;20716;-70
2023/06/06 11:15:57;;;;;;;6.60;4.25;;;;;;;;;;5021115;28;20178;-71
2023/06/06 11:18:42;;;;;;;8.00;3.67;;;;;;;;;;5036121;28;20245;-71
2023/06/06 11:21:07;;;;;;;6.35;3.63;;;;;;;;;;5046317;28;20260;-70
2023/06/06 11:23:42;;;;;;;8.05;3.42;;;;;;;;;;5023236;28;20266;-71
2023/06/06 11:26:08;;;;;;;13.00;4.88;;;;;;;;;;5043002;28;20208;-71
2023/06/06 11:28:33;;;;;;;6.82;3.70;;;;;;;;;;5024945;28;20591;-71
2023/06/06 11:30:59;;;;;;;5.65;3.85;;;;;;;;;;5043625;28;20328;-71
2023/06/06 11:33:25;;;;;;;5.30;3.50;;;;;;;;;;5047364;28;20594;-71
2023/06/06 11:35:53;;;;;;;7.13;3.58;;;;;;;;;;5028490;28;20173;-71
2023/06/06 11:38:18;;;;;;;5.30;3.50;;;;;;;;;;5036929;28;20620;-71
2023/06/06 11:40:44;;;;;;;9.70;4.10;;;;;;;;;;5042187;28;20224;-71
2023/06/06 11:43:10;;;;;;;5.90;3.35;;;;;;;;;;5040822;28;20427;-71
2023/06/06 11:45:35;;;;;;;6.40;3.83;;;;;;;;;;5046928;28;20607;-70
2023/06/06 11:48:00;;;;;;;9.05;3.55;;;;;;;;;;5050731;28;21014;-71
2023/06/06 11:50:26;;;;;;;8.35;3.30;;;;;;;;;;5037116;28;20631;-70
2023/06/06 11:52:51;;;;;;;5.07;2.72;;;;;;;;;;5049567;28;20199;-70
2023/06/06 11:55:18;;;;;;;4.65;3.55;;;;;;;;;;5031247;28;20686;-70
2023/06/06 11:57:43;;;;;;;5.77;3.60;;;;;;;;;;5041803;28;20237;-70
2023/06/06 12:00:17;;;;;;;8.05;4.05;;;;;;;;;;5043733;28;20430;-70
2023/06/06 12:02:47;;;;;;;5.22;3.30;;;;;;;;;;5015809;28;20180;-71
2023/06/06 12:05:16;;;;;;;7.13;3.83;;;;;;;;;;5032147;28;20210;-71
2023/06/06 12:07:41;;;;;;;5.90;3.65;;;;;;;;;;5055785;22;20316;-76
2023/06/06 12:10:07;;;;;;;15.60;4.07;;;;;;;;;;5068455;28;20221;-76
2023/06/06 12:12:42;;;;;;;5.25;4.32;;;;;;;;;;5071604;28;20209;-76
2023/06/06 12:15:07;;;;;;;7.10;3.45;;;;;;;;;;5065588;28;20177;-76
2023/06/06 12:17:33;;;;;;;12.65;3.88;;;;;;;;;;5070583;28;20223;-76
2023/06/06 12:19:58;;;;;;;8.57;3.45;;;;;;;;;;5065636;28;20635;-76
2023/06/06 12:22:27;;;;;;;5.63;3.53;;;;;;;;;;5069414;28;20180;-76
2023/06/06 12:24:52;;;;;;;9.27;3.00;;;;;;;;;;5073382;28;20420;-75
2023/06/06 12:27:26;;;;;;;6.53;4.07;;;;;;;;;;5072069;28;20267;-74
2023/06/06 12:29:54;;;;;;;7.07;3.33;;;;;;;;;;5070155;28;20169;-75
2023/06/06 12:32:26;;;;;;;4.57;3.03;;;;;;;;;;5084832;28;20257;-75
2023/06/06 12:35:01;;;;;;;7.70;4.05;;;;;;;;;;5073106;28;20183;-75
2023/06/06 12:37:40;;;;;;;4.57;3.33;;;;;;;;;;5070048;28;20215;-76
2023/06/06 12:40:33;;;;;;;3.85;3.03;;;;;;;;;;5061104;28;20644;-76
2023/06/06 12:43:06;;;;;;;7.20;3.50;;;;;;;;;;5061320;28;20181;-75
2023/06/06 12:45:32;;;;;;;7.22;3.92;;;;;;;;;;5068054;28;20739;-75
2023/06/06 12:47:59;;;;;;;5.53;3.10;;;;;;;;;;5065284;28;20204;-75
2023/06/06 12:50:24;;;;;;;9.68;3.33;;;;;;;;;;5060713;28;20264;-75
2023/06/06 12:52:50;;;;;;;4.97;3.17;;;;;;;;;;5064036;28;20259;-76
2023/06/06 12:55:15;;;;;;;5.38;3.65;;;;;;;;;;5072090;28;20578;-77
2023/06/06 12:57:41;;;;;;;4.72;2.53;;;;;;;;;;5063828;28;20201;-75
2023/06/06 13:00:10;;;;;;;5.70;3.47;;;;;;;;;;5063167;28;20177;-75
2023/06/06 13:02:36;;;;;;;8.18;2.70;;;;;;;;;;5066972;28;20181;-75
2023/06/06 13:05:01;;;;;;;8.00;3.40;;;;;;;;;;5070960;28;20264;-75
2023/06/06 13:07:26;;;;;;;7.50;3.25;;;;;;;;;;5064585;28;20247;-76
2023/06/06 13:09:51;;;;;;;4.57;3.10;;;;;;;;;;5072535;28;20295;-75
2023/06/06 13:12:16;;;;;;;4.15;3.10;;;;;;;;;;5069963;28;20464;-75
2023/06/06 13:14:42;;;;;;;5.73;3.47;;;;;;;;;;5072978;28;20214;-76
2023/06/06 13:17:07;;;;;;;7.25;3.50;;;;;;;;;;5061694;28;20426;-75
2023/06/06 13:19:32;;;;;;;5.82;2.95;;;;;;;;;;5068968;28;20173;-74
2023/06/06 13:21:58;;;;;;;6.95;3.53;;;;;;;;;;5062641;28;20314;-77
2023/06/06 13:24:23;;;;;;;5.72;3.20;;;;;;;;;;5070275;28;20656;-75
2023/06/06 13:26:48;;;;;;;6.20;3.15;;;;;;;;;;5070917;28;20179;-76
2023/06/06 13:29:14;;;;;;;5.88;3.45;;;;;;;;;;5066765;28;20202;-74
2023/06/06 13:31:39;;;;;;;6.80;3.35;;;;;;;;;;5071711;28;20293;-74
2023/06/06 13:34:05;;;;;;;6.70;3.13;;;;;;;;;;5065666;28;20177;-75
2023/06/06 13:36:30;;;;;;;5.88;3.25;;;;;;;;;;5066340;28;20242;-75
2023/06/06 13:38:55;;;;;;;4.05;3.13;;;;;;;;;;5072234;28;20196;-74
2023/06/06 13:41:21;;;;;;;8.27;3.53;;;;;;;;;;5072454;28;20191;-76
2023/06/06 13:43:46;;;;;;;7.60;3.90;;;;;;;;;;5070632;28;20209;-76
2023/06/06 13:46:12;;;;;;;7.65;3.75;;;;;;;;;;5061951;28;20188;-76
2023/06/06 13:48:38;;;;;;;5.10;3.60;;;;;;;;;;5066648;28;20192;-76
2023/06/06 13:51:03;;;;;;;6.60;3.72;;;;;;;;;;5058655;28;20181;-76
2023/06/06 13:53:28;;;;;;;5.85;3.40;;;;;;;;;;5069643;28;20212;-75
2023/06/06 13:55:55;;;;;;;7.83;3.53;;;;;;;;;;5059246;28;20211;-75
2023/06/06 13:58:23;;;;;;;6.85;4.18;;;;;;;;;;5060581;28;20819;-75
2023/06/06 14:00:49;;;;;;;9.05;4.28;;;;;;;;;;5066041;28;20661;-75
2023/06/06 14:03:14;;;;;;;7.28;3.63;;;;;;;;;;5072724;28;20196;-75
2023/06/06 14:05:39;;;;;;;6.13;3.70;;;;;;;;;;5074590;28;20184;-75
2023/06/06 14:08:05;;;;;;;6.05;3.67;;;;;;;;;;5065329;28;20213;-75
2023/06/06 14:10:30;;;;;;;6.60;3.30;;;;;;;;;;5074816;28;20173;-75
2023/06/06 14:12:57;;;;;;;5.53;3.78;;;;;;;;;;5075320;28;20526;-75
2023/06/06 14:15:23;;;;;;;5.80;3.63;;;;;;;;;;5073437;28;20197;-75
2023/06/06 14:17:48;;;;;;;8.88;3.92;;;;;;;;;;5064894;28;20220;-75
2023/06/06 14:20:20;;;;;;;13.82;4.00;;;;;;;;;;5064961;28;20197;-74
2023/06/06 14:22:47;;;;;;;5.32;3.53;;;;;;;;;;5071393;28;20183;-75
2023/06/06 14:25:12;;;;;;;9.15;3.70;;;;;;;;;;5071971;28;20185;-75
2023/06/06 14:27:39;;;;;;;6.63;3.35;;;;;;;;;;5069130;28;20204;-76
2023/06/06 14:30:05;;;;;;;19.83;3.85;;;;;;;;;;5067402;28;20189;-76
2023/06/06 14:32:31;;;;;;;5.85;3.88;;;;;;;;;;5066458;28;20287;-75
2023/06/06 14:34:58;;;;;;;9.88;4.82;;;;;;;;;;5068576;28;20179;-75
2023/06/06 14:37:23;;;;;;;10.38;4.43;;;;;;;;;;5074321;28;20235;-76
2023/06/06 14:39:49;;;;;;;8.90;4.60;;;;;;;;;;5060343;28;20204;-76